Terminal Aerodrome Forecast
Issued by NWS

Home | Current Version | Previous Version | Text Only | Print | Product List | Glossary On
Versions: 1 2 3 4 5 6 7 8 9 10 11 12 13 14
000
FTAK31 PANC 261722
TAFAIL
TAF
PAIL 261722Z 2618/2718 VRB03KT P6SM VCSH SCT035 OVC050
     FM262000 15008KT P6SM VCSH SCT035 OVC050
     FM270000 15008G15KT P6SM -SHRA SCT025 BKN035 OVC050
     FM271100 14012G22KT 6SM -RA BR SCT015 BKN025 OVC035=

USA.gov is the U.S. government's official web portal to all federal, state and local government web resources and services.